Time;durP1;ratioP1;P1;durP2;ratioP2;P2;SDS_P1;SDS_P2;PMS_P1;PMS_P2;Temp;Humidity;BMP_temperature;BMP_pressure;BME280_temperature;BME280_humidity;BME280_pressure;Samples;Min_cycle;Max_cycle;Signal;HPM_P1;HPM_P2
2022/06/01 00:01:55;;;;;;;8.67;7.40;;;;;;;;;;5100824;28;20267;-63
2022/06/01 00:04:24;;;;;;;7.30;6.63;;;;;;;;;;5100876;28;20201;-63
2022/06/01 00:06:52;;;;;;;8.03;6.20;;;;;;;;;;5100805;28;20229;-63
2022/06/01 00:09:20;;;;;;;9.83;6.37;;;;;;;;;;5100496;28;20289;-63
2022/06/01 00:11:49;;;;;;;8.27;7.43;;;;;;;;;;5099526;28;20251;-69
2022/06/01 00:14:17;;;;;;;7.90;6.80;;;;;;;;;;5100369;28;20263;-68
2022/06/01 00:16:45;;;;;;;9.83;6.93;;;;;;;;;;5100160;28;20656;-68
2022/06/01 00:19:13;;;;;;;8.57;7.37;;;;;;;;;;5100543;28;20209;-68
2022/06/01 00:24:24;;;;;;;10.57;7.30;;;;;;;;;;5099730;28;20681;-68
2022/06/01 00:26:52;;;;;;;7.97;6.60;;;;;;;;;;5099929;28;20260;-68
2022/06/01 00:29:21;;;;;;;9.67;7.00;;;;;;;;;;5097323;28;20679;-68
2022/06/01 00:31:49;;;;;;;11.53;7.10;;;;;;;;;;5100082;28;20565;-69
2022/06/01 00:34:17;;;;;;;8.40;7.43;;;;;;;;;;5099763;28;20205;-70
2022/06/01 00:36:47;;;;;;;8.03;6.90;;;;;;;;;;5099713;28;20701;-69
2022/06/01 00:39:15;;;;;;;13.03;7.33;;;;;;;;;;5099836;28;20229;-69
2022/06/01 00:41:43;;;;;;;10.73;7.33;;;;;;;;;;5099768;28;20312;-69
2022/06/01 00:44:11;;;;;;;8.27;7.33;;;;;;;;;;5100004;28;20237;-69
2022/06/01 00:46:39;;;;;;;7.00;6.40;;;;;;;;;;5099709;28;20285;-69
2022/06/01 00:49:11;;;;;;;9.17;7.23;;;;;;;;;;5099816;28;20341;-69
2022/06/01 00:51:40;;;;;;;10.10;6.83;;;;;;;;;;5099655;28;20206;-69
2022/06/01 00:54:10;;;;;;;8.23;7.27;;;;;;;;;;5099224;28;20641;-69
2022/06/01 00:56:41;;;;;;;8.93;7.63;;;;;;;;;;5099373;28;20255;-69
2022/06/01 00:59:11;;;;;;;8.33;7.47;;;;;;;;;;5099436;28;20704;-69
2022/06/01 01:01:39;;;;;;;8.23;6.73;;;;;;;;;;5099419;28;20257;-69
2022/06/01 01:04:08;;;;;;;8.70;6.90;;;;;;;;;;5099648;28;20209;-69
2022/06/01 01:06:37;;;;;;;7.40;6.60;;;;;;;;;;5099555;28;20312;-69
2022/06/01 01:09:05;;;;;;;8.90;6.80;;;;;;;;;;5099418;28;20236;-69
2022/06/01 01:11:37;;;;;;;7.23;6.53;;;;;;;;;;5099164;28;20233;-69
2022/06/01 01:14:07;;;;;;;9.87;7.13;;;;;;;;;;5099453;28;20233;-69
2022/06/01 01:16:35;;;;;;;8.27;7.47;;;;;;;;;;5099671;28;20268;-69
2022/06/01 01:19:07;;;;;;;7.87;7.00;;;;;;;;;;5099404;28;20221;-69
2022/06/01 01:21:44;;;;;;;6.70;6.10;;;;;;;;;;5099363;28;20221;-69
2022/06/01 01:24:16;;;;;;;7.17;6.27;;;;;;;;;;5098367;28;20205;-70
2022/06/01 01:26:48;;;;;;;8.00;6.67;;;;;;;;;;5099020;28;20233;-69
2022/06/01 01:29:17;;;;;;;8.97;6.93;;;;;;;;;;5096264;28;20237;-69
2022/06/01 01:31:45;;;;;;;8.80;6.67;;;;;;;;;;5099024;28;20229;-69
2022/06/01 01:34:13;;;;;;;7.73;6.73;;;;;;;;;;5099155;28;20212;-69
2022/06/01 01:36:45;;;;;;;10.30;6.80;;;;;;;;;;5098605;28;20663;-69
2022/06/01 01:39:14;;;;;;;8.57;6.93;;;;;;;;;;5098541;28;20212;-69
2022/06/01 01:41:43;;;;;;;9.33;8.00;;;;;;;;;;5098306;28;20235;-69
2022/06/01 01:44:16;;;;;;;8.10;7.30;;;;;;;;;;5098779;28;20236;-65
2022/06/01 01:46:47;;;;;;;9.67;7.20;;;;;;;;;;5098370;28;20656;-66
2022/06/01 01:49:16;;;;;;;11.10;7.43;;;;;;;;;;5098324;28;20274;-66
2022/06/01 01:51:44;;;;;;;9.57;7.10;;;;;;;;;;5087026;28;20198;-66
2022/06/01 01:54:19;;;;;;;12.83;7.97;;;;;;;;;;5079852;28;20237;-66
2022/06/01 01:56:53;;;;;;;8.77;7.57;;;;;;;;;;5088452;28;20261;-66
2022/06/01 01:59:28;;;;;;;8.63;7.37;;;;;;;;;;5098522;28;20209;-68
2022/06/01 02:02:00;;;;;;;9.00;6.87;;;;;;;;;;5085490;28;20249;-68
2022/06/01 02:07:20;;;;;;;8.07;7.17;;;;;;;;;;5091351;28;20225;-68
2022/06/01 02:12:43;;;;;;;10.77;7.17;;;;;;;;;;5087405;28;20250;-68
2022/06/01 02:15:15;;;;;;;7.73;7.00;;;;;;;;;;5090958;28;20237;-69
2022/06/01 02:17:49;;;;;;;10.60;7.60;;;;;;;;;;5086483;28;20229;-70
2022/06/01 02:20:23;;;;;;;9.03;7.87;;;;;;;;;;5079524;28;20190;-69
2022/06/01 02:22:52;;;;;;;10.97;8.63;;;;;;;;;;5077116;28;20305;-69
2022/06/01 02:25:22;;;;;;;8.43;6.87;;;;;;;;;;5081250;28;20205;-69
2022/06/01 02:27:52;;;;;;;8.27;7.33;;;;;;;;;;5080970;28;20230;-69
2022/06/01 02:30:23;;;;;;;9.93;7.53;;;;;;;;;;5079325;28;20260;-70
2022/06/01 02:32:52;;;;;;;11.40;8.07;;;;;;;;;;5082639;28;20210;-69
2022/06/01 02:35:27;;;;;;;10.40;8.20;;;;;;;;;;5084865;28;20222;-69
2022/06/01 02:37:56;;;;;;;9.23;8.10;;;;;;;;;;5079767;28;20745;-69
2022/06/01 02:40:25;;;;;;;8.53;7.40;;;;;;;;;;5080647;28;20628;-69
2022/06/01 02:42:54;;;;;;;10.20;8.10;;;;;;;;;;5076312;28;20250;-69
2022/06/01 02:45:25;;;;;;;9.67;8.37;;;;;;;;;;5077295;28;20260;-69
2022/06/01 02:47:54;;;;;;;8.80;7.97;;;;;;;;;;5076713;28;20762;-69
2022/06/01 02:50:24;;;;;;;9.67;8.23;;;;;;;;;;5076682;28;20230;-69
2022/06/01 02:52:52;;;;;;;9.40;7.93;;;;;;;;;;5078217;28;20198;-69
2022/06/01 02:55:21;;;;;;;8.93;8.13;;;;;;;;;;5077711;28;20221;-69
2022/06/01 02:57:49;;;;;;;8.90;8.00;;;;;;;;;;5080286;28;20202;-69
2022/06/01 03:00:18;;;;;;;13.30;8.13;;;;;;;;;;5075902;28;20247;-69
2022/06/01 03:02:50;;;;;;;9.90;8.77;;;;;;;;;;5075760;28;20578;-69
2022/06/01 03:05:19;;;;;;;9.00;8.13;;;;;;;;;;5077446;28;20203;-69
2022/06/01 03:07:48;;;;;;;11.63;8.43;;;;;;;;;;5078428;28;20198;-69
2022/06/01 03:10:16;;;;;;;8.73;7.83;;;;;;;;;;5078820;28;20639;-69
2022/06/01 03:12:44;;;;;;;9.07;7.93;;;;;;;;;;5077174;28;20194;-69
2022/06/01 03:15:13;;;;;;;8.80;7.67;;;;;;;;;;5089549;28;20204;-67
2022/06/01 03:17:42;;;;;;;10.70;8.53;;;;;;;;;;5087335;28;20260;-69
2022/06/01 03:20:13;;;;;;;10.00;8.50;;;;;;;;;;5094859;28;20209;-69
2022/06/01 03:22:43;;;;;;;13.03;8.67;;;;;;;;;;5087317;28;20289;-67
2022/06/01 03:25:13;;;;;;;10.70;7.97;;;;;;;;;;5091722;28;20275;-67
2022/06/01 03:27:41;;;;;;;9.10;8.10;;;;;;;;;;5087947;28;20735;-69
2022/06/01 03:30:11;;;;;;;10.70;8.40;;;;;;;;;;5093480;28;20206;-69
2022/06/01 03:32:39;;;;;;;11.87;8.20;;;;;;;;;;5084161;28;20203;-69
2022/06/01 03:35:08;;;;;;;10.97;8.13;;;;;;;;;;5094127;28;20247;-69
2022/06/01 03:37:37;;;;;;;11.23;8.73;;;;;;;;;;5085088;28;20587;-69
2022/06/01 03:40:06;;;;;;;10.63;9.10;;;;;;;;;;5095032;28;20244;-69
2022/06/01 03:42:34;;;;;;;11.43;7.77;;;;;;;;;;5079432;28;20265;-69
2022/06/01 03:47:48;;;;;;;8.83;7.93;;;;;;;;;;5084253;28;20210;-69
2022/06/01 03:50:16;;;;;;;9.80;8.33;;;;;;;;;;5099952;28;20229;-69
2022/06/01 03:52:46;;;;;;;13.30;9.43;;;;;;;;;;5083875;28;20233;-69
2022/06/01 03:55:15;;;;;;;10.50;8.17;;;;;;;;;;5100005;28;20214;-69
2022/06/01 03:57:43;;;;;;;10.90;8.90;;;;;;;;;;5086320;28;20242;-69
2022/06/01 04:00:13;;;;;;;13.90;8.30;;;;;;;;;;5100346;28;20244;-69
2022/06/01 04:02:42;;;;;;;10.43;9.10;;;;;;;;;;5082098;28;20268;-70
2022/06/01 04:05:12;;;;;;;10.23;9.20;;;;;;;;;;5090721;28;20228;-69
2022/06/01 04:07:40;;;;;;;14.13;10.70;;;;;;;;;;5083166;28;20241;-69
2022/06/01 04:10:10;;;;;;;14.00;10.60;;;;;;;;;;5092073;28;20243;-69
2022/06/01 04:12:38;;;;;;;13.00;10.53;;;;;;;;;;5089205;28;20206;-69
2022/06/01 04:15:08;;;;;;;15.03;11.23;;;;;;;;;;5092771;28;20205;-69
2022/06/01 04:17:52;;;;;;;12.23;10.50;;;;;;;;;;5089132;28;20224;-69
2022/06/01 04:20:21;;;;;;;12.10;10.60;;;;;;;;;;5095512;28;20244;-69
2022/06/01 04:22:49;;;;;;;13.73;10.27;;;;;;;;;;5091729;28;20351;-69
2022/06/01 04:25:19;;;;;;;16.37;10.93;;;;;;;;;;5083659;28;20233;-69
2022/06/01 04:27:47;;;;;;;16.40;11.13;;;;;;;;;;5086239;28;20222;-69
2022/06/01 04:30:16;;;;;;;14.73;11.63;;;;;;;;;;5096274;28;20273;-69
2022/06/01 04:32:45;;;;;;;16.73;10.57;;;;;;;;;;5087301;28;20252;-69
2022/06/01 04:35:13;;;;;;;13.37;10.60;;;;;;;;;;5097203;28;20209;-66
2022/06/01 04:37:41;;;;;;;14.17;10.33;;;;;;;;;;5088435;28;20285;-65
2022/06/01 04:40:10;;;;;;;14.63;10.73;;;;;;;;;;5098959;28;20255;-64
2022/06/01 04:42:40;;;;;;;13.07;10.40;;;;;;;;;;5080073;28;20697;-64
2022/06/01 04:45:09;;;;;;;12.17;9.40;;;;;;;;;;5099636;28;20234;-64
2022/06/01 04:47:37;;;;;;;13.57;11.00;;;;;;;;;;5083824;28;20572;-64
2022/06/01 04:50:07;;;;;;;13.03;10.93;;;;;;;;;;5107183;28;20228;-64
2022/06/01 04:52:35;;;;;;;13.17;10.70;;;;;;;;;;5085707;28;20230;-64
2022/06/01 04:55:03;;;;;;;13.77;11.97;;;;;;;;;;5082536;28;20233;-64
2022/06/01 04:57:31;;;;;;;11.10;9.17;;;;;;;;;;5081607;28;20245;-64
2022/06/01 05:00:00;;;;;;;15.67;9.80;;;;;;;;;;5088269;28;20612;-64
2022/06/01 05:02:28;;;;;;;12.37;10.33;;;;;;;;;;5082435;28;20225;-64
2022/06/01 05:04:56;;;;;;;14.23;10.17;;;;;;;;;;5093247;28;20208;-64
2022/06/01 05:07:24;;;;;;;15.90;10.50;;;;;;;;;;5088032;28;20221;-64
2022/06/01 05:09:52;;;;;;;13.57;10.13;;;;;;;;;;5086788;28;20233;-64
2022/06/01 05:12:20;;;;;;;11.60;10.37;;;;;;;;;;5083516;28;20213;-64
2022/06/01 05:14:48;;;;;;;14.10;10.20;;;;;;;;;;5093078;28;20209;-64
2022/06/01 05:17:19;;;;;;;15.33;9.83;;;;;;;;;;5087495;28;20217;-65
2022/06/01 05:19:47;;;;;;;12.27;9.63;;;;;;;;;;5094510;28;20252;-64
2022/06/01 05:22:15;;;;;;;12.93;10.27;;;;;;;;;;5092446;28;20338;-65
2022/06/01 05:24:43;;;;;;;11.97;9.63;;;;;;;;;;5101459;28;20272;-71
2022/06/01 05:27:11;;;;;;;15.17;11.00;;;;;;;;;;5095361;28;20297;-71
2022/06/01 05:29:39;;;;;;;17.40;11.13;;;;;;;;;;5090523;28;20794;-71
2022/06/01 05:32:07;;;;;;;12.87;10.97;;;;;;;;;;5091800;28;20752;-71
2022/06/01 05:34:36;;;;;;;11.00;9.83;;;;;;;;;;5104738;28;20716;-71
2022/06/01 05:37:04;;;;;;;14.43;10.60;;;;;;;;;;5096253;28;20696;-71
2022/06/01 05:39:32;;;;;;;10.67;9.27;;;;;;;;;;5105967;28;20571;-71
2022/06/01 05:42:00;;;;;;;11.40;9.50;;;;;;;;;;5090454;28;20241;-71
2022/06/01 05:44:31;;;;;;;12.80;9.33;;;;;;;;;;5091929;28;20759;-71
2022/06/01 05:47:00;;;;;;;11.80;9.60;;;;;;;;;;5086921;28;20254;-71
2022/06/01 05:49:28;;;;;;;11.10;9.10;;;;;;;;;;5092935;28;20261;-71
2022/06/01 05:51:58;;;;;;;12.53;9.80;;;;;;;;;;5088334;28;20245;-70
2022/06/01 05:54:27;;;;;;;12.17;10.87;;;;;;;;;;5093424;28;20282;-67
2022/06/01 05:56:56;;;;;;;16.50;10.17;;;;;;;;;;5090040;28;20221;-67
2022/06/01 05:59:30;;;;;;;12.30;10.80;;;;;;;;;;5093260;28;20277;-67
2022/06/01 06:01:58;;;;;;;12.53;10.00;;;;;;;;;;5087560;28;20233;-68
2022/06/01 06:04:26;;;;;;;11.53;10.10;;;;;;;;;;5094373;28;20226;-67
2022/06/01 06:06:54;;;;;;;11.30;10.10;;;;;;;;;;5089072;28;20920;-67
2022/06/01 06:09:26;;;;;;;14.43;10.70;;;;;;;;;;5094012;28;20206;-67
2022/06/01 06:11:54;;;;;;;13.10;10.37;;;;;;;;;;5085092;28;20288;-68
2022/06/01 06:14:22;;;;;;;15.50;10.50;;;;;;;;;;5093023;28;20203;-67
2022/06/01 06:16:50;;;;;;;12.07;10.80;;;;;;;;;;5092381;28;20754;-67
2022/06/01 06:19:19;;;;;;;13.17;10.17;;;;;;;;;;5094360;28;20197;-67
2022/06/01 06:21:48;;;;;;;13.03;10.60;;;;;;;;;;5090968;28;20231;-67
2022/06/01 06:24:17;;;;;;;16.50;11.67;;;;;;;;;;5093949;28;20256;-67
2022/06/01 06:26:47;;;;;;;15.43;11.97;;;;;;;;;;5091576;28;20226;-67
2022/06/01 06:29:16;;;;;;;18.47;12.90;;;;;;;;;;5093386;28;20193;-68
2022/06/01 06:31:45;;;;;;;18.47;12.87;;;;;;;;;;5090528;28;20194;-68
2022/06/01 06:34:15;;;;;;;17.47;12.87;;;;;;;;;;5095990;28;20610;-69
2022/06/01 06:36:44;;;;;;;18.77;14.23;;;;;;;;;;5088791;28;20226;-69
2022/06/01 06:39:13;;;;;;;15.73;13.53;;;;;;;;;;5091641;28;20198;-69
2022/06/01 06:41:41;;;;;;;15.57;12.63;;;;;;;;;;5090828;28;20207;-68
2022/06/01 06:44:11;;;;;;;23.30;13.90;;;;;;;;;;5085739;28;20222;-68
2022/06/01 06:46:39;;;;;;;20.37;13.33;;;;;;;;;;5086893;28;20226;-68
2022/06/01 06:49:07;;;;;;;18.47;13.17;;;;;;;;;;5099139;28;20232;-69
2022/06/01 06:51:36;;;;;;;24.73;13.67;;;;;;;;;;5091057;28;20288;-69
2022/06/01 06:54:05;;;;;;;20.77;13.17;;;;;;;;;;5090114;28;20201;-69
2022/06/01 06:56:33;;;;;;;17.47;12.50;;;;;;;;;;5090332;28;20304;-69
2022/06/01 06:59:02;;;;;;;20.87;13.20;;;;;;;;;;5088576;28;20296;-69
2022/06/01 07:01:31;;;;;;;19.30;13.00;;;;;;;;;;5091687;28;20239;-69
2022/06/01 07:04:00;;;;;;;20.40;14.67;;;;;;;;;;5090787;28;20225;-69
2022/06/01 07:06:29;;;;;;;15.77;12.37;;;;;;;;;;5092736;28;20218;-69
2022/06/01 07:08:57;;;;;;;20.50;13.93;;;;;;;;;;5090118;28;20201;-70
2022/06/01 07:11:28;;;;;;;18.90;13.53;;;;;;;;;;5079046;28;20206;-69
2022/06/01 07:13:57;;;;;;;18.97;14.27;;;;;;;;;;5078764;28;20220;-69
2022/06/01 07:16:26;;;;;;;21.40;14.10;;;;;;;;;;5093677;28;20260;-69
2022/06/01 07:18:56;;;;;;;17.60;12.43;;;;;;;;;;5086530;28;20198;-69
2022/06/01 07:21:24;;;;;;;21.77;13.53;;;;;;;;;;5078738;28;20206;-68
2022/06/01 07:23:57;;;;;;;19.60;13.73;;;;;;;;;;5091705;28;20226;-70
2022/06/01 07:26:29;;;;;;;20.30;15.60;;;;;;;;;;5092603;28;20232;-69
2022/06/01 07:28:57;;;;;;;20.73;14.80;;;;;;;;;;5096970;28;20259;-74
2022/06/01 07:31:25;;;;;;;19.40;14.87;;;;;;;;;;5093067;28;20205;-67
2022/06/01 07:33:58;;;;;;;19.67;15.73;;;;;;;;;;5085425;28;20198;-68
2022/06/01 07:36:27;;;;;;;21.33;15.60;;;;;;;;;;5091678;28;20239;-67
2022/06/01 07:44:27;;;;;;;21.47;14.77;;;;;;;;;;5094770;28;20278;-66
2022/06/01 07:46:55;;;;;;;24.93;16.17;;;;;;;;;;5094383;28;20218;-67
2022/06/01 07:49:45;;;;;;;23.07;15.63;;;;;;;;;;5100287;28;20314;-67
2022/06/01 07:52:33;;;;;;;25.93;16.13;;;;;;;;;;5088673;28;20315;-67
2022/06/01 07:55:02;;;;;;;22.70;15.87;;;;;;;;;;5099902;28;20198;-75
2022/06/01 07:57:32;;;;;;;25.17;16.93;;;;;;;;;;5091237;28;20255;-74
2022/06/01 08:00:00;;;;;;;26.40;16.67;;;;;;;;;;5099849;28;20225;-74
2022/06/01 08:02:28;;;;;;;25.73;17.17;;;;;;;;;;5092003;28;20201;-74
2022/06/01 08:04:57;;;;;;;28.80;17.87;;;;;;;;;;5099265;28;20679;-74
2022/06/01 08:07:25;;;;;;;23.97;16.83;;;;;;;;;;5092165;28;20257;-74
2022/06/01 08:09:53;;;;;;;23.90;17.17;;;;;;;;;;5099684;28;20247;-73
2022/06/01 08:15:08;;;;;;;27.17;17.43;;;;;;;;;;5097554;28;20225;-74
2022/06/01 08:17:46;;;;;;;24.70;17.33;;;;;;;;;;5092689;28;20205;-74
2022/06/01 08:20:16;;;;;;;22.80;16.87;;;;;;;;;;5099410;28;20198;-74
2022/06/01 08:22:44;;;;;;;24.57;17.50;;;;;;;;;;5091265;28;20239;-73
2022/06/01 08:25:14;;;;;;;26.07;16.57;;;;;;;;;;5101206;28;20249;-74
2022/06/01 08:27:42;;;;;;;24.77;17.67;;;;;;;;;;5093487;28;20285;-72
2022/06/01 08:30:10;;;;;;;26.77;17.73;;;;;;;;;;5098821;28;20219;-72
2022/06/01 08:32:39;;;;;;;23.37;16.97;;;;;;;;;;5091934;28;20738;-74
2022/06/01 08:35:08;;;;;;;25.10;17.27;;;;;;;;;;5095781;28;20326;-72
2022/06/01 08:37:37;;;;;;;27.37;18.43;;;;;;;;;;5092271;28;20201;-72
2022/06/01 08:40:06;;;;;;;26.63;17.97;;;;;;;;;;5099416;28;20202;-74
2022/06/01 08:42:35;;;;;;;25.20;18.00;;;;;;;;;;5084217;28;20256;-73
2022/06/01 08:45:06;;;;;;;26.20;17.40;;;;;;;;;;5099675;28;20252;-74
2022/06/01 08:47:36;;;;;;;23.87;18.73;;;;;;;;;;5085109;28;20202;-73
2022/06/01 08:50:07;;;;;;;25.27;17.33;;;;;;;;;;5099537;28;20240;-74
2022/06/01 08:52:35;;;;;;;24.97;16.87;;;;;;;;;;5084961;28;20234;-74
2022/06/01 08:55:04;;;;;;;26.77;15.97;;;;;;;;;;5099093;28;20197;-74
2022/06/01 08:57:39;;;;;;;24.27;15.57;;;;;;;;;;5086439;28;20264;-74
2022/06/01 09:00:09;;;;;;;21.23;13.97;;;;;;;;;;5080538;28;20259;-74
2022/06/01 09:02:43;;;;;;;20.13;13.90;;;;;;;;;;5084683;28;20203;-74
2022/06/01 09:05:14;;;;;;;22.90;14.80;;;;;;;;;;5099189;28;20221;-74
2022/06/01 09:07:45;;;;;;;21.27;13.97;;;;;;;;;;5087101;28;20681;-74
2022/06/01 09:10:25;;;;;;;27.50;16.43;;;;;;;;;;5092347;28;20197;-74
2022/06/01 09:12:58;;;;;;;27.23;16.57;;;;;;;;;;5087220;28;20271;-74
2022/06/01 09:15:27;;;;;;;24.30;15.87;;;;;;;;;;5097316;28;20248;-74
2022/06/01 09:17:56;;;;;;;24.50;15.53;;;;;;;;;;5093378;28;20202;-74
2022/06/01 09:23:11;;;;;;;22.20;15.43;;;;;;;;;;5091056;28;20236;-74
2022/06/01 09:25:48;;;;;;;22.50;14.80;;;;;;;;;;5086934;28;20225;-74
2022/06/01 09:28:19;;;;;;;22.57;16.03;;;;;;;;;;5091859;28;20197;-74
2022/06/01 09:30:51;;;;;;;22.17;15.83;;;;;;;;;;5096986;28;20238;-74
2022/06/01 09:33:23;;;;;;;22.23;15.17;;;;;;;;;;5083203;28;20202;-75
2022/06/01 09:36:01;;;;;;;17.00;14.50;;;;;;;;;;5097508;28;20221;-74
2022/06/01 09:38:36;;;;;;;20.33;16.63;;;;;;;;;;5094314;28;20235;-74
2022/06/01 09:41:06;;;;;;;22.03;16.37;;;;;;;;;;5094149;28;20251;-74
2022/06/01 09:43:35;;;;;;;23.00;16.23;;;;;;;;;;5092730;28;20206;-74
2022/06/01 09:46:03;;;;;;;24.80;15.73;;;;;;;;;;5093355;28;20230;-74
2022/06/01 09:48:31;;;;;;;23.03;17.20;;;;;;;;;;5087701;28;20237;-74
2022/06/01 09:51:01;;;;;;;20.57;15.97;;;;;;;;;;5095746;28;20225;-74
2022/06/01 09:53:31;;;;;;;20.03;16.10;;;;;;;;;;5079832;28;20202;-74
2022/06/01 09:56:00;;;;;;;24.27;16.43;;;;;;;;;;5094053;28;20252;-74
2022/06/01 10:06:59;;;;;;;21.37;14.83;;;;;;;;;;5091191;28;20259;-74
2022/06/01 10:09:31;;;;;;;20.10;15.53;;;;;;;;;;5091913;28;20197;-74
2022/06/01 10:12:16;;;;;;;19.77;14.80;;;;;;;;;;5089600;28;20228;-74
2022/06/01 10:14:51;;;;;;;18.57;14.87;;;;;;;;;;5092804;28;20204;-74
2022/06/01 10:17:22;;;;;;;19.40;14.40;;;;;;;;;;5089229;28;20213;-74
2022/06/01 10:19:52;;;;;;;21.40;14.90;;;;;;;;;;5094002;28;20202;-74
2022/06/01 10:22:24;;;;;;;20.47;14.33;;;;;;;;;;5083913;28;20552;-73
2022/06/01 10:24:55;;;;;;;16.53;13.17;;;;;;;;;;5094942;28;20232;-73
2022/06/01 10:27:25;;;;;;;20.77;14.80;;;;;;;;;;5084917;28;20268;-72
2022/06/01 10:30:00;;;;;;;18.67;13.93;;;;;;;;;;5087811;28;20244;-71
2022/06/01 10:32:31;;;;;;;22.90;14.57;;;;;;;;;;5088665;28;20232;-72
2022/06/01 10:35:05;;;;;;;17.40;13.20;;;;;;;;;;5083844;28;20210;-72
2022/06/01 10:37:36;;;;;;;17.53;13.63;;;;;;;;;;5097487;28;20688;-73
2022/06/01 10:40:07;;;;;;;16.93;13.17;;;;;;;;;;5097485;28;20208;-74
2022/06/01 10:45:27;;;;;;;17.30;13.77;;;;;;;;;;5097339;28;20208;-74
2022/06/01 10:48:00;;;;;;;16.63;13.07;;;;;;;;;;5097724;28;20238;-74
2022/06/01 10:50:30;;;;;;;17.77;13.57;;;;;;;;;;5097290;28;20201;-75
2022/06/01 10:53:02;;;;;;;16.93;13.10;;;;;;;;;;5097105;28;20657;-74
2022/06/01 10:55:32;;;;;;;17.87;12.80;;;;;;;;;;5098533;28;20225;-75
2022/06/01 10:58:01;;;;;;;17.47;12.97;;;;;;;;;;5108235;28;20207;-74
2022/06/01 11:00:38;;;;;;;17.93;15.80;;;;;;;;;;5123950;27;20211;-74
2022/06/01 11:03:23;;;;;;;16.53;13.47;;;;;;;;;;5123336;27;20664;-75
2022/06/01 11:05:57;;;;;;;19.97;14.23;;;;;;;;;;5124628;27;20270;-74
2022/06/01 11:08:32;;;;;;;23.20;13.30;;;;;;;;;;5124501;27;20212;-73
2022/06/01 11:11:04;;;;;;;21.37;13.60;;;;;;;;;;5124214;27;20240;-74
2022/06/01 11:13:42;;;;;;;18.93;14.03;;;;;;;;;;5124290;27;20204;-75
2022/06/01 11:16:24;;;;;;;21.43;14.57;;;;;;;;;;5116022;27;20244;-75
2022/06/01 11:19:06;;;;;;;22.13;14.70;;;;;;;;;;5092250;28;20207;-75
2022/06/01 11:21:39;;;;;;;19.27;14.07;;;;;;;;;;5103953;28;20213;-75
2022/06/01 11:24:15;;;;;;;16.33;12.30;;;;;;;;;;5103940;28;20205;-75
2022/06/01 11:27:10;;;;;;;14.83;12.70;;;;;;;;;;5103481;28;20257;-75
2022/06/01 11:29:46;;;;;;;15.33;12.93;;;;;;;;;;5103986;28;20236;-75
2022/06/01 11:32:17;;;;;;;17.67;12.67;;;;;;;;;;5104159;28;20201;-75
2022/06/01 11:34:50;;;;;;;21.53;13.47;;;;;;;;;;5103953;28;20640;-76
2022/06/01 11:37:20;;;;;;;16.80;13.77;;;;;;;;;;5104227;28;20256;-75
2022/06/01 11:39:52;;;;;;;20.33;13.90;;;;;;;;;;5103822;28;20267;-75
2022/06/01 11:42:22;;;;;;;16.90;13.87;;;;;;;;;;5103742;28;20689;-73
2022/06/01 11:44:53;;;;;;;19.17;14.77;;;;;;;;;;5104247;28;20205;-73
2022/06/01 11:47:23;;;;;;;20.27;14.70;;;;;;;;;;5103855;28;20278;-73
2022/06/01 11:50:04;;;;;;;20.07;16.07;;;;;;;;;;5103797;28;20241;-73
2022/06/01 11:52:34;;;;;;;17.77;15.03;;;;;;;;;;5104059;28;20212;-74
2022/06/01 11:55:12;;;;;;;22.50;15.93;;;;;;;;;;5103473;28;20237;-73
2022/06/01 11:57:45;;;;;;;17.27;15.07;;;;;;;;;;5103680;28;20630;-73
2022/06/01 12:00:16;;;;;;;23.53;13.80;;;;;;;;;;5104168;28;20237;-73
2022/06/01 12:02:47;;;;;;;19.03;13.90;;;;;;;;;;5103930;28;20240;-73
2022/06/01 12:05:22;;;;;;;164.60;118.53;;;;;;;;;;5103754;28;20706;-70
2022/06/01 12:07:52;;;;;;;18.13;14.57;;;;;;;;;;5100950;28;20263;-65
2022/06/01 12:10:22;;;;;;;15.93;12.43;;;;;;;;;;5100176;28;20213;-73
2022/06/01 12:13:04;;;;;;;10.27;9.23;;;;;;;;;;5090417;28;20247;-69
2022/06/01 12:15:34;;;;;;;12.50;10.97;;;;;;;;;;5093119;28;20292;-71
2022/06/01 12:18:09;;;;;;;14.07;11.50;;;;;;;;;;5099096;28;20248;-70
2022/06/01 12:20:48;;;;;;;17.10;12.90;;;;;;;;;;5100191;28;20209;-70
2022/06/01 12:29:14;;;;;;;14.37;12.73;;;;;;;;;;5067429;28;20206;-70
2022/06/01 12:32:04;;;;;;;17.37;13.10;;;;;;;;;;5093203;28;20284;-70
2022/06/01 12:34:36;;;;;;;18.20;13.90;;;;;;;;;;5114193;28;20261;-70
2022/06/01 12:37:08;;;;;;;15.60;12.73;;;;;;;;;;5088397;28;20221;-70
2022/06/01 12:39:42;;;;;;;13.63;12.13;;;;;;;;;;5099816;28;20205;-70
2022/06/01 12:42:20;;;;;;;12.63;10.93;;;;;;;;;;5110580;28;20230;-76
2022/06/01 12:44:50;;;;;;;20.27;11.67;;;;;;;;;;5102316;28;20244;-72
2022/06/01 12:47:22;;;;;;;12.23;10.50;;;;;;;;;;5105376;28;20254;-72
2022/06/01 12:49:52;;;;;;;10.10;8.70;;;;;;;;;;5103412;28;20233;-72
2022/06/01 12:52:21;;;;;;;8.80;7.37;;;;;;;;;;5099594;28;20750;-73
2022/06/01 12:54:57;;;;;;;10.73;9.63;;;;;;;;;;5099531;28;20584;-72
2022/06/01 12:57:27;;;;;;;15.87;7.43;;;;;;;;;;5101734;28;20568;-72
2022/06/01 12:59:59;;;;;;;12.13;9.03;;;;;;;;;;5099193;28;20240;-72
2022/06/01 13:02:28;;;;;;;12.00;9.73;;;;;;;;;;5100858;28;20223;-73
2022/06/01 13:04:58;;;;;;;13.40;10.40;;;;;;;;;;5098714;28;20232;-72
2022/06/01 13:07:29;;;;;;;11.20;10.00;;;;;;;;;;5100840;28;20225;-72
2022/06/01 13:10:04;;;;;;;10.10;8.97;;;;;;;;;;5095998;28;20247;-73
2022/06/01 13:12:33;;;;;;;11.30;9.03;;;;;;;;;;5096286;28;20202;-72
2022/06/01 13:15:08;;;;;;;10.37;9.37;;;;;;;;;;5099573;28;20233;-72
2022/06/01 13:17:45;;;;;;;10.60;9.50;;;;;;;;;;5098318;28;20197;-72
2022/06/01 13:20:14;;;;;;;10.97;8.80;;;;;;;;;;5098795;28;20244;-70
2022/06/01 13:22:44;;;;;;;14.30;8.67;;;;;;;;;;5102973;28;20229;-70
2022/06/01 13:25:13;;;;;;;11.93;9.90;;;;;;;;;;5107680;28;20204;-70
2022/06/01 13:27:43;;;;;;;10.70;9.53;;;;;;;;;;5101344;28;20252;-70
2022/06/01 13:30:15;;;;;;;11.93;9.97;;;;;;;;;;5101359;28;20225;-73
2022/06/01 13:35:58;;;;;;;10.50;9.40;;;;;;;;;;5118750;28;20273;-69
2022/06/01 13:38:34;;;;;;;202.03;107.57;;;;;;;;;;5118911;28;20200;-79
2022/06/01 13:41:04;;;;;;;32.03;18.60;;;;;;;;;;5106106;28;20246;-77
2022/06/01 13:43:39;;;;;;;11.77;9.67;;;;;;;;;;5098804;28;20205;-75
2022/06/01 13:46:08;;;;;;;11.13;8.37;;;;;;;;;;5097917;28;20589;-77
2022/06/01 13:48:39;;;;;;;11.20;7.97;;;;;;;;;;5098237;28;20287;-75
2022/06/01 13:51:12;;;;;;;13.37;7.80;;;;;;;;;;5098027;28;20205;-75
2022/06/01 13:53:42;;;;;;;10.70;7.67;;;;;;;;;;5098185;28;20254;-73
2022/06/01 13:56:21;;;;;;;8.80;7.00;;;;;;;;;;5097901;28;20264;-74
2022/06/01 13:58:54;;;;;;;7.33;6.63;;;;;;;;;;5098608;28;20292;-75
2022/06/01 14:01:31;;;;;;;9.50;6.73;;;;;;;;;;5100489;28;20244;-76
2022/06/01 14:04:01;;;;;;;6.97;5.00;;;;;;;;;;5118414;28;20582;-75
2022/06/01 14:06:35;;;;;;;5.40;4.60;;;;;;;;;;5118244;28;20669;-75
2022/06/01 14:09:04;;;;;;;8.50;4.87;;;;;;;;;;5118228;28;20228;-75
2022/06/01 14:11:32;;;;;;;5.70;5.20;;;;;;;;;;5118311;27;20205;-75
2022/06/01 14:14:02;;;;;;;8.33;4.87;;;;;;;;;;5118044;28;20707;-75
2022/06/01 14:16:30;;;;;;;5.87;4.30;;;;;;;;;;5110964;28;20697;-73
2022/06/01 14:18:59;;;;;;;5.53;4.17;;;;;;;;;;5098065;28;20203;-75
2022/06/01 14:21:28;;;;;;;4.47;4.00;;;;;;;;;;5097809;28;20226;-74
2022/06/01 14:23:58;;;;;;;4.73;4.33;;;;;;;;;;5095261;28;20207;-65
2022/06/01 14:29:08;;;;;;;5.90;4.87;;;;;;;;;;5068159;28;20233;-66
2022/06/01 14:31:37;;;;;;;5.07;4.50;;;;;;;;;;5097452;28;20236;-65
2022/06/01 14:34:06;;;;;;;5.57;4.40;;;;;;;;;;5097319;28;20301;-66
2022/06/01 14:36:34;;;;;;;6.27;4.53;;;;;;;;;;5097566;28;20227;-66
2022/06/01 14:39:04;;;;;;;5.80;4.77;;;;;;;;;;5097424;28;20200;-65
2022/06/01 14:41:33;;;;;;;6.10;4.63;;;;;;;;;;5110672;28;20201;-64
2022/06/01 14:44:02;;;;;;;6.40;5.27;;;;;;;;;;5117657;27;20244;-65
2022/06/01 14:46:31;;;;;;;6.60;4.60;;;;;;;;;;5117823;28;20760;-65
2022/06/01 14:48:59;;;;;;;5.07;4.57;;;;;;;;;;5115295;28;20243;-65
2022/06/01 14:51:30;;;;;;;5.13;4.63;;;;;;;;;;5098250;28;20265;-65
2022/06/01 14:54:00;;;;;;;6.33;4.50;;;;;;;;;;5097093;28;20205;-70
2022/06/01 14:56:29;;;;;;;5.30;4.80;;;;;;;;;;5098472;28;20222;-70
2022/06/01 14:59:01;;;;;;;5.87;4.20;;;;;;;;;;5096373;28;20246;-71
2022/06/01 15:01:31;;;;;;;6.17;5.03;;;;;;;;;;5093167;28;20208;-71
2022/06/01 15:04:00;;;;;;;6.33;4.83;;;;;;;;;;5097201;28;20245;-72
2022/06/01 15:06:29;;;;;;;6.07;4.60;;;;;;;;;;5097581;28;20258;-66
2022/06/01 15:08:57;;;;;;;5.33;4.30;;;;;;;;;;5096550;28;20231;-64
2022/06/01 15:11:25;;;;;;;5.87;4.90;;;;;;;;;;5098537;28;20235;-64
2022/06/01 15:13:55;;;;;;;6.37;5.30;;;;;;;;;;5099620;28;20208;-64
2022/06/01 15:16:23;;;;;;;7.40;4.60;;;;;;;;;;5094059;28;20220;-66
2022/06/01 15:18:58;;;;;;;6.63;4.67;;;;;;;;;;5098740;28;20253;-64
2022/06/01 15:21:27;;;;;;;5.33;4.33;;;;;;;;;;5094625;28;20604;-64
2022/06/01 15:23:56;;;;;;;4.67;4.20;;;;;;;;;;5097429;28;20201;-65
2022/06/01 15:26:24;;;;;;;6.10;5.20;;;;;;;;;;5095852;28;20715;-66
2022/06/01 15:28:53;;;;;;;5.33;4.83;;;;;;;;;;5096461;28;20268;-65
2022/06/01 15:39:40;;;;;;;6.60;4.50;;;;;;;;;;5094449;28;20615;-66